Time;durP1;ratioP1;P1;durP2;ratioP2;P2;SDS_P1;SDS_P2;PMS_P1;PMS_P2;Temp;Humidity;BMP_temperature;BMP_pressure;BME280_temperature;BME280_humidity;BME280_pressure;Samples;Min_cycle;Max_cycle;Signal;HPM_P1;HPM_P2
2022/07/24 00:01:30;;;;;;;26.52;13.50;;;;;;;21.14;57.40;99477.13;5053286;28;20033;-64
2022/07/24 00:03:55;;;;;;;23.23;13.15;;;;;;;21.15;57.62;99488.81;5053562;28;20132;-62
2022/07/24 00:06:22;;;;;;;23.00;13.00;;;;;;;21.12;57.65;99486.50;5053196;28;20037;-60
2022/07/24 00:08:47;;;;;;;22.50;12.80;;;;;;;21.09;57.72;99482.28;5053134;28;20025;-61
2022/07/24 00:11:13;;;;;;;24.05;12.63;;;;;;;21.11;57.51;99490.28;5053307;28;20029;-60
2022/07/24 00:13:38;;;;;;;22.23;13.13;;;;;;;21.08;57.63;99486.91;5053139;28;20025;-61
2022/07/24 00:16:05;;;;;;;21.15;12.52;;;;;;;21.03;57.42;99488.56;5053160;28;20202;-60
2022/07/24 00:18:30;;;;;;;19.38;12.50;;;;;;;20.95;57.54;99478.66;5053524;28;20028;-62
2022/07/24 00:20:56;;;;;;;16.60;12.48;;;;;;;20.96;57.83;99485.78;5053063;28;20048;-60
2022/07/24 00:23:23;;;;;;;17.23;12.55;;;;;;;20.94;57.79;99496.88;5052677;28;20044;-59
2022/07/24 00:25:48;;;;;;;21.67;12.75;;;;;;;20.89;57.46;99485.78;5052998;28;20366;-61
2022/07/24 00:28:14;;;;;;;16.90;12.20;;;;;;;20.74;57.26;99464.09;5051385;28;20043;-61
2022/07/24 00:30:40;;;;;;;17.00;13.13;;;;;;;20.84;57.58;99477.34;5051403;28;20025;-60
2022/07/24 00:33:06;;;;;;;18.02;12.43;;;;;;;20.72;57.37;99468.88;5051953;28;20060;-60
2022/07/24 00:35:31;;;;;;;20.77;12.57;;;;;;;20.86;57.68;99496.19;5053582;28;20362;-60
2022/07/24 00:37:57;;;;;;;14.60;11.93;;;;;;;20.84;57.83;99501.00;5052831;28;20377;-60
2022/07/24 00:40:24;;;;;;;18.05;12.18;;;;;;;20.81;57.62;99504.94;5051373;28;20136;-59
2022/07/24 00:42:50;;;;;;;20.30;12.73;;;;;;;20.76;58.14;99505.53;5052656;28;20416;-60
2022/07/24 00:45:15;;;;;;;19.08;12.73;;;;;;;20.50;57.90;99463.50;5052569;28;20029;-60
2022/07/24 00:47:41;;;;;;;15.70;12.18;;;;;;;20.67;58.12;99493.09;5052317;28;20108;-60
2022/07/24 00:50:07;;;;;;;20.75;12.20;;;;;;;20.60;58.33;99481.34;5052405;28;20052;-61
2022/07/24 00:52:33;;;;;;;19.75;12.52;;;;;;;20.61;58.38;99492.00;5050667;28;20113;-63
2022/07/24 00:54:58;;;;;;;18.38;12.98;;;;;;;20.59;58.60;99488.66;5051278;28;20405;-60
2022/07/24 00:57:23;;;;;;;18.20;11.93;;;;;;;20.40;58.70;99457.56;5052104;28;20032;-60
2022/07/24 00:59:49;;;;;;;19.45;12.15;;;;;;;20.55;58.58;99492.00;5052497;28;20473;-60
2022/07/24 01:02:15;;;;;;;17.38;12.10;;;;;;;20.54;58.82;99503.91;5052233;28;20045;-60
2022/07/24 01:04:41;;;;;;;23.42;12.32;;;;;;;20.50;58.57;99496.16;5050906;28;20063;-60
2022/07/24 01:07:07;;;;;;;18.20;12.57;;;;;;;20.50;58.82;99493.44;5050748;28;20330;-59
2022/07/24 01:09:33;;;;;;;18.55;12.75;;;;;;;20.43;59.04;99489.78;5052554;28;20029;-60
2022/07/24 01:11:59;;;;;;;20.70;12.00;;;;;;;20.42;59.29;99488.13;5052452;28;20091;-61
2022/07/24 01:14:25;;;;;;;17.13;12.15;;;;;;;20.44;59.25;99496.09;5052098;28;20036;-60
2022/07/24 01:16:50;;;;;;;16.10;11.65;;;;;;;20.44;59.15;99496.91;5050600;28;20033;-61
2022/07/24 01:19:16;;;;;;;17.42;12.13;;;;;;;20.44;59.39;99496.91;5050789;28;20082;-59
2022/07/24 01:21:47;;;;;;;19.10;12.70;;;;;;;20.36;59.14;99478.84;5052212;28;20556;-60
2022/07/24 01:24:12;;;;;;;17.63;11.77;;;;;;;20.33;59.30;99468.38;5051775;28;20041;-61
2022/07/24 01:26:38;;;;;;;19.48;12.35;;;;;;;20.57;59.01;99495.34;5050262;28;20032;-61
2022/07/24 01:29:03;;;;;;;17.77;12.23;;;;;;;20.67;58.87;99495.00;5050792;28;20021;-61
2022/07/24 01:31:29;;;;;;;15.77;11.85;;;;;;;20.75;58.59;99497.56;5050669;28;20120;-60
2022/07/24 01:33:54;;;;;;;18.73;12.20;;;;;;;20.71;58.60;99469.91;5051936;28;20485;-61
2022/07/24 01:36:19;;;;;;;15.50;11.65;;;;;;;20.79;58.47;99471.63;5051512;28;20025;-60
2022/07/24 01:38:45;;;;;;;16.15;11.90;;;;;;;20.92;58.38;99489.94;5050444;28;20032;-59
2022/07/24 01:41:10;;;;;;;14.48;11.73;;;;;;;20.94;58.23;99496.03;5033903;28;20033;-61
2022/07/24 01:43:36;;;;;;;24.55;12.35;;;;;;;20.94;58.17;99491.44;5033585;28;20488;-61
2022/07/24 01:46:01;;;;;;;17.95;12.18;;;;;;;20.98;58.22;99497.34;5051777;28;20028;-61
2022/07/24 01:48:27;;;;;;;18.10;12.60;;;;;;;20.93;58.35;99489.78;5051288;28;20036;-61
2022/07/24 01:50:53;;;;;;;17.40;12.45;;;;;;;20.98;58.72;99491.91;5051395;28;20194;-60
2022/07/24 01:53:18;;;;;;;24.08;11.65;;;;;;;21.00;58.60;99503.41;5050236;28;20397;-61
2022/07/24 01:55:43;;;;;;;15.93;12.32;;;;;;;20.80;58.78;99467.91;5051110;28;20029;-60
2022/07/24 01:58:09;;;;;;;15.30;11.95;;;;;;;20.95;58.76;99492.28;5051318;28;20473;-59
2022/07/24 02:00:35;;;;;;;15.65;12.10;;;;;;;20.93;59.08;99500.66;5050103;28;20048;-60
2022/07/24 02:03:00;;;;;;;21.25;12.25;;;;;;;20.94;58.61;99498.75;5050956;28;20049;-61
2022/07/24 02:05:26;;;;;;;20.33;12.60;;;;;;;20.91;58.98;99497.28;5050851;28;20037;-59
2022/07/24 02:07:58;;;;;;;19.42;12.73;;;;;;;20.97;58.90;99511.97;5051116;28;20090;-60
2022/07/24 02:10:24;;;;;;;21.15;12.27;;;;;;;20.92;58.88;99509.00;5050869;28;20052;-60
2022/07/24 02:12:50;;;;;;;18.00;12.25;;;;;;;20.93;58.73;99506.09;5050072;28;20146;-60
2022/07/24 02:15:15;;;;;;;20.17;12.18;;;;;;;20.98;58.70;99502.78;5051007;28;20039;-60
2022/07/24 02:17:48;;;;;;;21.52;13.25;;;;;;;21.08;58.85;99511.41;5049744;28;20529;-60
2022/07/24 02:20:15;;;;;;;20.42;12.57;;;;;;;21.04;58.53;99510.13;5051230;28;20028;-60
2022/07/24 02:22:40;;;;;;;22.20;12.98;;;;;;;21.10;58.20;99510.38;5051054;28;20025;-62
2022/07/24 02:25:07;;;;;;;22.35;12.55;;;;;;;21.19;57.81;99509.16;5051309;28;20047;-60
2022/07/24 02:27:32;;;;;;;18.83;11.88;;;;;;;21.26;57.50;99499.16;5050985;28;20033;-60
2022/07/24 02:29:58;;;;;;;23.20;12.50;;;;;;;21.38;57.38;99496.69;5033382;28;20384;-60
2022/07/24 02:32:24;;;;;;;18.00;11.85;;;;;;;21.49;56.67;99500.72;5050909;28;20052;-60
2022/07/24 02:34:50;;;;;;;14.20;11.13;;;;;;;21.46;56.61;99490.22;5051069;28;20025;-60
2022/07/24 02:37:16;;;;;;;20.10;12.40;;;;;;;21.62;56.21;99503.47;5051278;28;20393;-61
2022/07/24 02:39:41;;;;;;;26.00;11.52;;;;;;;21.71;56.36;99511.53;5050925;28;20112;-61
2022/07/24 02:42:07;;;;;;;15.88;11.18;;;;;;;21.81;55.93;99506.50;5050970;28;20055;-60
2022/07/24 02:44:32;;;;;;;21.83;11.90;;;;;;;21.88;55.78;99504.63;5050763;28;20077;-59
2022/07/24 02:46:58;;;;;;;16.90;11.35;;;;;;;21.93;55.64;99499.38;5050870;28;20039;-60
2022/07/24 02:49:23;;;;;;;14.32;11.55;;;;;;;22.03;55.56;99507.16;5050798;28;20036;-59
2022/07/24 02:51:49;;;;;;;21.70;12.13;;;;;;;22.10;55.51;99509.91;5050648;28;20048;-61
2022/07/24 02:54:14;;;;;;;16.00;11.13;;;;;;;22.13;54.75;99504.03;5049365;28;20037;-60
2022/07/24 02:56:40;;;;;;;15.88;10.43;;;;;;;22.20;54.94;99502.19;5049743;28;20112;-63
2022/07/24 02:59:06;;;;;;;17.30;11.15;;;;;;;22.26;54.56;99497.75;5051186;28;20028;-61
2022/07/24 03:01:31;;;;;;;21.42;10.93;;;;;;;22.34;54.49;99496.72;5049409;28;20034;-61
2022/07/24 03:03:57;;;;;;;17.50;11.38;;;;;;;22.37;54.12;99488.97;5050573;28;20215;-60
2022/07/24 03:06:22;;;;;;;17.35;10.93;;;;;;;22.44;54.01;99488.97;5050598;28;20083;-61
2022/07/24 03:08:48;;;;;;;13.63;11.27;;;;;;;22.53;53.92;99492.34;5050715;28;20025;-60
2022/07/24 03:11:13;;;;;;;15.13;10.95;;;;;;;22.61;53.64;99489.41;5050576;28;20025;-59
2022/07/24 03:13:39;;;;;;;18.98;11.00;;;;;;;22.70;53.21;99492.75;5050585;28;20465;-60
2022/07/24 03:16:05;;;;;;;15.65;10.75;;;;;;;22.78;52.75;99489.78;5051567;28;20063;-62
2022/07/24 03:18:30;;;;;;;17.23;11.30;;;;;;;22.87;52.38;99481.38;5054309;28;20064;-61
2022/07/24 03:20:56;;;;;;;15.20;11.30;;;;;;;22.97;52.26;99487.25;5054048;28;20458;-61
2022/07/24 03:23:22;;;;;;;15.05;11.20;;;;;;;22.93;52.21;99458.72;5053977;28;20036;-59
2022/07/24 03:25:48;;;;;;;22.02;10.98;;;;;;;23.15;51.92;99472.06;5054210;28;20211;-60
2022/07/24 03:28:13;;;;;;;20.40;10.77;;;;;;;23.37;51.36;99473.47;5052737;28;20119;-60
2022/07/24 03:30:38;;;;;;;19.52;10.38;;;;;;;23.78;50.42;99473.28;5054210;28;20024;-61
2022/07/24 03:33:04;;;;;;;25.60;10.68;;;;;;;24.22;49.10;99446.91;5054199;28;20462;-60
2022/07/24 03:35:29;;;;;;;21.27;10.70;;;;;;;25.15;46.75;99472.75;5054295;28;20029;-60
2022/07/24 03:37:55;;;;;;;21.98;10.88;;;;;;;25.90;44.73;99457.88;5053882;28;20530;-61
2022/07/24 03:40:21;;;;;;;13.43;10.13;;;;;;;26.78;42.63;99468.25;5053860;28;20381;-61
2022/07/24 03:42:46;;;;;;;19.42;10.35;;;;;;;27.56;40.78;99461.66;5053678;28;20331;-64
2022/07/24 03:45:11;;;;;;;13.32;9.95;;;;;;;28.07;39.34;99430.66;5054052;28;20374;-61
2022/07/24 03:47:37;;;;;;;16.10;10.15;;;;;;;28.90;38.13;99467.75;5053727;28;20033;-60
2022/07/24 03:50:03;;;;;;;15.98;9.15;;;;;;;29.47;36.69;99460.22;5053445;28;20044;-60
2022/07/24 03:52:29;;;;;;;20.48;9.02;;;;;;;30.12;35.25;99462.28;5053537;28;20044;-60
2022/07/24 03:54:55;;;;;;;19.38;9.05;;;;;;;30.81;33.83;99465.28;5053635;28;20021;-59
2022/07/24 03:57:20;;;;;;;21.50;8.32;;;;;;;31.62;32.40;99468.66;5053576;28;20029;-60
2022/07/24 03:59:46;;;;;;;14.38;8.20;;;;;;;32.16;31.57;99434.16;5053137;28;20385;-60
2022/07/24 04:02:12;;;;;;;11.93;7.57;;;;;;;32.84;29.81;99421.03;5035676;28;20041;-60
2022/07/24 04:04:37;;;;;;;11.43;7.00;;;;;;;33.81;28.73;99458.88;5053378;28;20401;-60
2022/07/24 04:07:03;;;;;;;13.68;8.20;;;;;;;34.43;27.76;99458.41;5053042;28;20029;-60
2022/07/24 04:09:28;;;;;;;12.13;7.95;;;;;;;34.80;27.00;99440.25;5053441;28;20389;-60
2022/07/24 04:11:54;;;;;;;8.55;7.15;;;;;;;35.44;26.18;99462.28;5053049;28;20056;-60
2022/07/24 04:14:19;;;;;;;10.57;7.28;;;;;;;36.08;25.29;99444.41;5052961;28;20056;-58
2022/07/24 04:16:45;;;;;;;9.48;6.88;;;;;;;36.83;24.17;99458.41;5053246;28;20388;-61
2022/07/24 04:19:10;;;;;;;13.48;7.03;;;;;;;37.53;22.98;99466.75;5053138;28;20115;-60
2022/07/24 04:21:36;;;;;;;11.05;6.72;;;;;;;38.15;22.17;99456.09;5052926;28;20385;-59
2022/07/24 04:24:01;;;;;;;10.40;6.82;;;;;;;38.82;21.65;99457.16;5053111;28;20123;-60
2022/07/24 04:26:27;;;;;;;12.05;6.47;;;;;;;39.61;20.27;99468.59;5052819;28;20037;-60
2022/07/24 04:28:52;;;;;;;15.18;6.32;;;;;;;40.21;19.60;99472.84;5052256;28;20032;-59
2022/07/24 04:31:18;;;;;;;12.05;6.45;;;;;;;40.51;19.26;99468.19;5052600;28;20037;-60
2022/07/24 04:33:44;;;;;;;14.27;5.93;;;;;;;40.98;18.41;99464.53;5053243;28;20036;-60
2022/07/24 04:36:09;;;;;;;16.77;6.10;;;;;;;41.40;18.18;99465.81;5052524;28;20037;-61
2022/07/24 04:38:34;;;;;;;11.75;6.43;;;;;;;41.92;17.63;99472.19;5052588;28;20044;-61
2022/07/24 04:41:00;;;;;;;16.15;5.85;;;;;;;42.33;17.05;99464.88;5052710;28;20483;-60
2022/07/24 04:43:26;;;;;;;7.28;5.88;;;;;;;42.44;17.13;99426.72;5052519;28;20392;-60
2022/07/24 04:45:51;;;;;;;10.50;5.63;;;;;;;43.01;16.31;99469.22;5052732;28;20033;-60
2022/07/24 04:48:17;;;;;;;11.48;5.45;;;;;;;43.50;16.10;99470.34;5052342;28;20029;-61
2022/07/24 04:50:43;;;;;;;8.88;5.30;;;;;;;43.36;16.16;99461.47;5052788;28;20071;-59
2022/07/24 04:53:08;;;;;;;8.45;5.38;;;;;;;42.59;16.55;99449.72;5051341;28;20141;-61
2022/07/24 04:55:34;;;;;;;7.70;4.82;;;;;;;42.92;16.64;99467.69;5052572;28;20025;-60
2022/07/24 04:57:59;;;;;;;12.02;5.05;;;;;;;43.92;15.35;99468.38;5052097;28;20465;-59
2022/07/24 05:00:24;;;;;;;8.63;4.90;;;;;;;44.76;14.83;99458.16;5052379;28;20036;-60
2022/07/24 05:02:50;;;;;;;6.88;4.78;;;;;;;45.59;13.98;99460.13;5052421;28;20045;-60
2022/07/24 05:05:16;;;;;;;5.50;4.28;;;;;;;46.33;13.43;99462.38;5052391;28;20041;-61
2022/07/24 05:07:41;;;;;;;7.03;4.40;;;;;;;46.68;13.21;99456.56;5050465;28;20045;-59
2022/07/24 05:10:07;;;;;;;8.82;4.63;;;;;;;47.18;12.18;99461.41;5052108;28;20041;-59
2022/07/24 05:12:33;;;;;;;8.38;4.50;;;;;;;47.68;12.08;99464.16;5052033;28;20114;-59
2022/07/24 05:14:58;;;;;;;7.57;4.55;;;;;;;48.25;11.72;99456.69;5052147;28;20085;-60
2022/07/24 05:17:23;;;;;;;33.22;5.10;;;;;;;48.88;11.35;99441.84;5051938;28;20036;-60
2022/07/24 05:19:49;;;;;;;5.32;3.70;;;;;;;49.51;10.66;99464.59;5051950;28;20058;-61
2022/07/24 05:22:14;;;;;;;9.02;4.00;;;;;;;49.82;10.41;99451.72;5052312;28;20024;-60
2022/07/24 05:24:40;;;;;;;7.30;4.33;;;;;;;50.09;10.21;99448.53;5051841;28;20469;-60
2022/07/24 05:27:05;;;;;;;5.65;3.97;;;;;;;50.47;9.81;99453.09;5051471;28;20270;-60
2022/07/24 05:29:31;;;;;;;4.40;3.47;;;;;;;50.83;9.62;99442.50;5051706;28;20369;-60
2022/07/24 05:31:56;;;;;;;8.10;4.03;;;;;;;51.31;9.05;99445.28;5051914;28;20112;-61
2022/07/24 05:34:22;;;;;;;4.53;3.67;;;;;;;51.65;8.92;99428.47;5051517;28;20040;-59
2022/07/24 05:36:48;;;;;;;6.82;3.65;;;;;;;51.89;8.80;99430.78;5050448;28;20128;-61
2022/07/24 05:39:14;;;;;;;4.22;3.83;;;;;;;52.03;8.40;99449.91;5049850;28;20032;-59
2022/07/24 05:41:40;;;;;;;4.47;3.75;;;;;;;52.06;8.54;99441.28;5050040;28;20043;-60
2022/07/24 05:44:05;;;;;;;8.77;3.30;;;;;;;52.49;8.35;99437.34;5051434;28;20115;-61
2022/07/24 05:46:31;;;;;;;3.83;3.42;;;;;;;52.89;7.79;99444.72;5051668;28;20074;-61
2022/07/24 05:48:56;;;;;;;3.13;2.92;;;;;;;53.41;7.74;99446.66;5051455;28;20072;-60
2022/07/24 05:51:22;;;;;;;5.30;3.22;;;;;;;53.90;7.30;99443.56;5050208;28;20090;-61
2022/07/24 05:53:47;;;;;;;4.57;3.25;;;;;;;54.12;6.84;99436.72;5051782;28;20025;-61
2022/07/24 05:56:13;;;;;;;3.47;3.15;;;;;;;54.45;6.84;99419.81;5051456;28;20029;-59
2022/07/24 05:58:38;;;;;;;4.95;3.25;;;;;;;54.86;6.77;99435.88;5051291;28;20033;-61
2022/07/24 06:01:04;;;;;;;4.90;3.38;;;;;;;55.31;6.37;99431.72;5051227;28;20060;-60
2022/07/24 06:03:29;;;;;;;4.50;3.72;;;;;;;55.82;6.04;99432.72;5051298;28;20485;-62
2022/07/24 06:05:55;;;;;;;4.25;3.17;;;;;;;56.12;6.02;99436.56;5051220;28;20041;-62
2022/07/24 06:08:20;;;;;;;4.60;3.38;;;;;;;56.47;5.32;99416.81;5051187;28;20033;-62
2022/07/24 06:10:46;;;;;;;4.00;3.80;;;;;;;56.64;5.59;99417.63;5051748;28;20029;-61
2022/07/24 06:13:11;;;;;;;4.20;3.80;;;;;;;56.70;5.80;99415.00;5051196;28;20116;-61
2022/07/24 06:15:37;;;;;;;4.47;4.07;;;;;;;56.61;5.88;99412.75;5050992;28;20277;-61
2022/07/24 06:18:02;;;;;;;3.80;3.60;;;;;;;56.78;5.33;99405.72;5051035;28;20611;-61
2022/07/24 06:20:28;;;;;;;4.45;3.67;;;;;;;57.10;4.74;99408.94;5050954;28;20242;-61
2022/07/24 06:22:54;;;;;;;4.10;3.83;;;;;;;57.57;4.21;99421.97;5050738;28;20090;-62
2022/07/24 06:25:19;;;;;;;4.10;3.80;;;;;;;57.52;4.68;99404.47;5049993;28;20363;-60
2022/07/24 06:27:47;;;;;;;3.60;3.30;;;;;;;57.57;4.64;99426.91;5050834;28;20044;-61
2022/07/24 06:30:21;;;;;;;4.53;4.07;;;;;;;57.58;4.84;99409.22;5051295;28;20441;-60
2022/07/24 06:32:48;;;;;;;3.58;3.42;;;;;;;57.98;4.27;99425.25;5051288;28;20037;-62
2022/07/24 06:35:14;;;;;;;4.30;4.00;;;;;;;58.24;4.14;99396.41;5051055;28;20028;-61
2022/07/24 06:37:39;;;;;;;4.10;3.90;;;;;;;58.47;3.77;99394.38;5051000;28;20032;-60
2022/07/24 06:40:06;;;;;;;4.75;4.38;;;;;;;58.76;4.33;99402.03;5049913;28;20033;-62
2022/07/24 06:42:31;;;;;;;4.65;4.45;;;;;;;59.13;4.10;99402.34;5050687;28;20033;-61
2022/07/24 06:44:57;;;;;;;4.87;4.57;;;;;;;59.77;3.70;99414.75;5051120;28;20029;-62
2022/07/24 06:47:22;;;;;;;5.23;4.93;;;;;;;60.22;3.32;99409.56;5051067;28;20099;-62
2022/07/24 06:49:48;;;;;;;6.38;5.88;;;;;;;60.23;3.50;99393.84;5049630;28;20280;-61
2022/07/24 06:52:13;;;;;;;6.45;6.00;;;;;;;60.49;2.87;99402.22;5053529;28;20084;-60
2022/07/24 06:54:39;;;;;;;5.25;4.85;;;;;;;60.80;2.96;99398.41;5054675;28;20349;-61
2022/07/24 06:57:04;;;;;;;6.68;6.18;;;;;;;60.24;3.44;99383.88;5054542;28;20028;-62
2022/07/24 06:59:30;;;;;;;6.23;5.83;;;;;;;60.43;2.67;99396.31;5054786;28;20400;-62
2022/07/24 07:01:56;;;;;;;6.38;5.88;;;;;;;60.66;3.05;99376.75;5054188;28;20258;-60
2022/07/24 07:04:22;;;;;;;6.10;5.80;;;;;;;61.06;2.61;99395.19;5054235;28;20041;-61
2022/07/24 07:06:47;;;;;;;6.70;6.40;;;;;;;61.14;2.36;99389.84;5054550;28;20052;-61
2022/07/24 07:09:13;;;;;;;7.82;7.32;;;;;;;61.01;2.53;99392.91;5054498;28;20029;-62
2022/07/24 07:11:38;;;;;;;7.27;6.87;;;;;;;58.88;3.53;99380.19;5053053;28;20174;-61
2022/07/24 07:14:04;;;;;;;6.70;6.15;;;;;;;57.07;4.07;99375.34;5054261;28;20265;-61
2022/07/24 07:16:29;;;;;;;5.30;5.10;;;;;;;55.02;5.61;99336.88;5054426;28;20032;-60
2022/07/24 07:18:55;;;;;;;5.13;4.82;;;;;;;52.66;6.58;99358.38;5054126;28;20253;-62
2022/07/24 07:21:20;;;;;;;4.32;3.97;;;;;;;51.62;7.46;99357.16;5054173;28;20021;-61
2022/07/24 07:23:46;;;;;;;4.70;3.65;;;;;;;53.07;7.35;99362.47;5053886;28;20053;-61
2022/07/24 07:26:11;;;;;;;3.58;3.35;;;;;;;54.88;5.58;99358.06;5054161;28;20484;-61
2022/07/24 07:28:37;;;;;;;4.03;3.72;;;;;;;56.19;5.27;99364.56;5053864;28;20032;-61
2022/07/24 07:31:03;;;;;;;3.95;3.65;;;;;;;55.50;5.33;99367.00;5052608;28;20116;-60
2022/07/24 07:33:28;;;;;;;4.40;4.10;;;;;;;52.96;6.11;99354.00;5053355;28;20076;-61
2022/07/24 07:35:54;;;;;;;3.27;3.17;;;;;;;51.43;7.45;99347.06;5054016;28;20033;-62
2022/07/24 07:38:19;;;;;;;3.38;3.17;;;;;;;52.81;6.47;99355.38;5053624;28;20816;-61
2022/07/24 07:40:45;;;;;;;3.70;3.50;;;;;;;54.79;5.29;99347.97;5053644;28;20025;-62
2022/07/24 07:43:11;;;;;;;3.42;3.30;;;;;;;56.44;4.39;99354.50;5053731;28;20025;-62
2022/07/24 07:45:36;;;;;;;4.10;3.90;;;;;;;57.67;4.54;99348.06;5053858;28;20524;-60
2022/07/24 07:48:02;;;;;;;4.78;4.47;;;;;;;58.93;4.10;99344.19;5053576;28;20029;-61
2022/07/24 07:50:29;;;;;;;5.47;5.07;;;;;;;59.78;2.88;99343.34;5053562;28;20469;-63
2022/07/24 07:52:54;;;;;;;6.20;5.88;;;;;;;60.18;2.68;99346.19;5053956;28;20033;-61
2022/07/24 07:55:20;;;;;;;6.50;6.03;;;;;;;60.31;3.07;99322.09;5053330;28;20035;-62
2022/07/24 07:57:46;;;;;;;8.40;7.65;;;;;;;60.87;2.63;99343.13;5053468;28;20033;-61
2022/07/24 08:00:12;;;;;;;9.18;8.77;;;;;;;60.96;2.69;99344.41;5053538;28;20075;-60
2022/07/24 08:02:38;;;;;;;9.13;8.52;;;;;;;60.80;2.99;99339.75;5052801;28;20041;-61
2022/07/24 08:05:05;;;;;;;10.30;9.80;;;;;;;60.46;3.11;99330.94;5053273;28;20048;-60
2022/07/24 08:07:31;;;;;;;8.65;8.25;;;;;;;59.75;3.40;99331.47;5053326;28;20484;-61
2022/07/24 08:09:56;;;;;;;9.98;9.27;;;;;;;59.02;3.10;99332.69;5053086;28;20041;-62
2022/07/24 08:12:22;;;;;;;8.05;7.65;;;;;;;57.40;4.43;99328.38;5053087;28;20033;-60
2022/07/24 08:14:47;;;;;;;7.00;6.60;;;;;;;54.41;5.98;99310.22;5053278;28;20048;-61
2022/07/24 08:17:13;;;;;;;5.35;4.88;;;;;;;53.79;6.03;99323.50;5053010;28;20800;-60
2022/07/24 08:19:38;;;;;;;5.15;4.65;;;;;;;53.83;6.32;99311.19;5052903;28;20039;-61
2022/07/24 08:22:04;;;;;;;4.90;4.47;;;;;;;53.91;6.07;99318.41;5053135;28;20040;-61
2022/07/24 08:24:32;;;;;;;4.10;3.78;;;;;;;52.84;6.76;99303.13;5053106;28;20040;-61
2022/07/24 08:26:58;;;;;;;3.95;3.50;;;;;;;50.44;7.70;99317.22;5053070;28;20032;-61
2022/07/24 08:29:24;;;;;;;3.40;2.80;;;;;;;47.29;9.61;99306.53;5053088;28;20112;-60
2022/07/24 08:31:50;;;;;;;2.90;2.70;;;;;;;44.76;11.46;99302.88;5051496;28;20098;-61
2022/07/24 08:34:16;;;;;;;4.32;2.33;;;;;;;42.96;13.16;99310.97;5051918;28;20029;-61
2022/07/24 08:36:45;;;;;;;3.08;2.88;;;;;;;41.50;15.01;99305.28;5052565;28;20435;-60
2022/07/24 08:39:12;;;;;;;2.97;2.60;;;;;;;40.35;15.99;99307.22;5052327;28;20029;-61
2022/07/24 08:41:38;;;;;;;3.05;2.85;;;;;;;39.16;17.29;99300.84;5052805;28;20025;-61
2022/07/24 08:44:04;;;;;;;3.58;3.30;;;;;;;38.08;17.62;99297.25;5052736;28;20056;-61
2022/07/24 08:46:30;;;;;;;3.03;2.65;;;;;;;37.28;19.14;99304.28;5052533;28;20071;-64
2022/07/24 08:48:57;;;;;;;3.38;3.00;;;;;;;36.87;19.19;99297.66;5052701;28;20040;-60
2022/07/24 08:51:28;;;;;;;4.97;3.28;;;;;;;36.69;20.07;99291.09;5051458;28;20116;-61
2022/07/24 08:53:54;;;;;;;5.65;3.28;;;;;;;36.58;20.66;99289.66;5051248;28;20372;-60
2022/07/24 08:56:20;;;;;;;3.58;3.25;;;;;;;36.35;20.25;99295.94;5052099;28;20044;-61
2022/07/24 08:58:45;;;;;;;3.17;2.97;;;;;;;36.11;20.29;99287.75;5052064;28;20039;-61
2022/07/24 09:01:11;;;;;;;3.78;2.90;;;;;;;35.85;21.32;99290.19;5034568;28;20032;-61
2022/07/24 09:03:42;;;;;;;4.32;3.35;;;;;;;35.58;21.49;99295.38;5052120;28;20087;-61
2022/07/24 09:06:09;;;;;;;4.93;3.90;;;;;;;34.99;22.04;99289.28;5051962;28;20095;-60
2022/07/24 09:08:35;;;;;;;4.15;3.50;;;;;;;34.75;22.43;99287.41;5050733;28;20044;-61
2022/07/24 09:11:06;;;;;;;4.63;3.42;;;;;;;34.41;22.72;99286.41;5052064;28;20045;-62
2022/07/24 09:16:23;;;;;;;3.85;3.22;;;;;;;33.84;22.89;99298.13;5050306;28;20118;-61
2022/07/24 09:19:09;;;;;;;3.67;3.38;;;;;;;33.89;22.78;99292.50;5051295;28;20033;-61
2022/07/24 09:21:37;;;;;;;3.97;3.67;;;;;;;33.57;24.26;99281.97;5051891;28;20036;-61
2022/07/24 09:24:18;;;;;;;3.47;3.28;;;;;;;33.86;23.88;99279.22;5051082;28;20047;-60
2022/07/24 09:26:48;;;;;;;3.85;3.20;;;;;;;34.14;23.27;99278.69;5051156;28;20113;-62
2022/07/24 09:29:14;;;;;;;3.83;3.53;;;;;;;34.28;23.45;99273.25;5051292;28;20033;-61
2022/07/24 09:32:01;;;;;;;3.72;3.42;;;;;;;34.70;22.90;99291.06;5051477;28;20028;-60
2022/07/24 09:34:40;;;;;;;3.55;3.25;;;;;;;34.71;22.87;99264.91;5051687;28;20358;-61
2022/07/24 09:37:08;;;;;;;5.25;3.40;;;;;;;34.84;22.98;99290.34;5051382;28;20162;-60
2022/07/24 09:39:36;;;;;;;3.63;3.22;;;;;;;34.91;23.00;99291.63;5051348;28;20480;-61
2022/07/24 09:42:04;;;;;;;4.60;3.00;;;;;;;34.95;21.22;99283.50;5050550;28;20025;-59
2022/07/24 09:44:30;;;;;;;4.47;3.28;;;;;;;34.95;21.62;99282.69;5051500;28;20478;-61
2022/07/24 09:47:00;;;;;;;3.40;3.10;;;;;;;34.92;22.02;99293.28;5051491;28;20033;-60
2022/07/24 09:49:28;;;;;;;3.83;3.30;;;;;;;34.74;21.66;99286.59;5050295;28;20029;-61
2022/07/24 09:52:32;;;;;;;3.53;3.20;;;;;;;34.84;21.37;99284.78;5051216;28;20043;-61
2022/07/24 09:54:57;;;;;;;3.47;3.15;;;;;;;34.58;21.89;99282.34;5051017;28;20493;-60
2022/07/24 09:57:24;;;;;;;3.63;3.33;;;;;;;34.70;22.91;99276.34;5050710;28;20071;-60
2022/07/24 09:59:58;;;;;;;6.32;3.53;;;;;;;34.89;22.98;99287.47;5051145;28;20371;-62
2022/07/24 10:02:29;;;;;;;3.90;3.60;;;;;;;34.88;23.01;99288.59;5051201;28;20081;-62
2022/07/24 10:04:57;;;;;;;3.47;3.17;;;;;;;34.72;23.62;99291.59;5051047;28;20040;-61
2022/07/24 10:07:26;;;;;;;3.97;3.35;;;;;;;34.68;23.33;99296.09;5050845;28;20036;-62
2022/07/24 10:09:55;;;;;;;3.85;3.20;;;;;;;34.49;23.56;99291.34;5051100;28;20037;-60
2022/07/24 10:12:23;;;;;;;3.65;3.35;;;;;;;34.46;23.65;99282.75;5049694;28;20045;-60
2022/07/24 10:14:51;;;;;;;5.47;3.53;;;;;;;34.49;23.99;99280.25;5051124;28;20412;-61
2022/07/24 10:17:18;;;;;;;3.67;3.20;;;;;;;34.36;24.01;99272.59;5050647;28;20033;-61
2022/07/24 10:19:46;;;;;;;3.60;3.40;;;;;;;34.09;23.81;99262.91;5050056;28;20029;-63
2022/07/24 10:22:15;;;;;;;4.10;3.22;;;;;;;34.07;24.58;99274.28;5050862;28;20452;-61
2022/07/24 10:24:53;;;;;;;3.45;3.22;;;;;;;34.26;24.31;99278.28;5051087;28;20060;-61
2022/07/24 10:27:29;;;;;;;6.68;3.30;;;;;;;34.42;23.78;99271.38;5055368;28;20094;-61
2022/07/24 10:30:09;;;;;;;4.40;3.30;;;;;;;34.36;24.21;99269.81;5055599;28;20025;-60
2022/07/24 10:32:36;;;;;;;5.43;3.22;;;;;;;34.47;22.77;99260.19;5055138;28;20037;-61
2022/07/24 10:35:16;;;;;;;3.50;3.20;;;;;;;34.37;22.87;99267.88;5055131;28;20120;-61
2022/07/24 10:37:42;;;;;;;5.50;3.00;;;;;;;33.98;23.37;99253.00;5055128;28;20079;-60
2022/07/24 10:40:44;;;;;;;3.40;3.20;;;;;;;33.87;23.66;99260.59;5054932;28;20032;-60
2022/07/24 10:43:12;;;;;;;3.25;2.95;;;;;;;33.50;24.50;99227.66;5054564;28;20067;-60
2022/07/24 10:45:38;;;;;;;3.08;2.88;;;;;;;33.61;23.81;99260.84;5054654;28;20044;-60
2022/07/24 10:48:22;;;;;;;4.55;3.13;;;;;;;33.70;24.11;99258.25;5055155;28;20504;-61
2022/07/24 10:50:57;;;;;;;3.67;3.28;;;;;;;33.42;24.31;99258.81;5054982;28;20064;-62
2022/07/24 10:53:27;;;;;;;3.25;2.95;;;;;;;32.99;24.22;99245.50;5054485;28;20533;-62
2022/07/24 10:55:54;;;;;;;3.15;2.95;;;;;;;32.92;25.08;99245.00;5054606;28;20040;-59
2022/07/24 10:58:21;;;;;;;3.40;3.15;;;;;;;32.97;24.46;99242.19;5054765;28;20150;-60
2022/07/24 11:00:50;;;;;;;4.35;3.95;;;;;;;33.11;24.80;99247.09;5053141;28;20037;-60
2022/07/24 11:03:25;;;;;;;3.65;3.10;;;;;;;33.14;24.17;99250.09;5054510;28;20468;-61
2022/07/24 11:06:11;;;;;;;3.22;2.90;;;;;;;33.27;24.20;99245.84;5054758;28;20044;-59
2022/07/24 11:08:41;;;;;;;3.15;2.95;;;;;;;33.01;24.80;99237.72;5054789;28;20044;-60
2022/07/24 11:11:09;;;;;;;3.50;3.20;;;;;;;32.66;25.31;99231.25;5036528;28;20033;-62
2022/07/24 11:13:37;;;;;;;3.50;3.20;;;;;;;32.44;25.57;99235.25;5054564;28;20155;-60
2022/07/24 11:16:15;;;;;;;3.30;2.92;;;;;;;32.35;25.65;99228.66;5054657;28;20464;-60
2022/07/24 11:18:49;;;;;;;6.00;3.58;;;;;;;32.06;26.79;99218.19;5054386;28;20039;-60
2022/07/24 11:21:42;;;;;;;4.55;3.40;;;;;;;32.33;25.98;99223.38;5054396;28;20024;-62
2022/07/24 11:26:59;;;;;;;4.40;3.20;;;;;;;32.18;26.21;99221.47;5054172;28;20503;-60
2022/07/24 11:29:42;;;;;;;3.60;3.30;;;;;;;31.77;26.44;99216.91;5054151;28;20778;-61
2022/07/24 11:32:22;;;;;;;3.58;3.33;;;;;;;31.34;27.27;99221.91;5052801;28;20109;-61
2022/07/24 11:34:51;;;;;;;3.30;3.10;;;;;;;31.30;27.38;99213.31;5054004;28;20384;-60